This is the latest recevied weather packets stored in our database for station/object DL8TF-13. If no packets are shown the sender has not sent any weather packets the latest 10 day(s).
| Time | Temp. | Humidity | Pressure | Rain* | Wind** | Luminosity | Snow |
|---|---|---|---|---|---|---|---|
| 1778245478 | 34.44° C | 19% | 984 hPa | - | - | - | - |
| 1778244878 | 33.33° C | 22% | 984 hPa | - | - | - | - |
| 1778244278 | 33.89° C | 20% | 984 hPa | - | - | - | - |
| 1778243678 | 32.78° C | 20% | 985 hPa | - | - | - | - |
| 1778243078 | 30° C | 22% | 985 hPa | - | - | - | - |
| 1778242478 | 27.78° C | 25% | 985 hPa | - | - | - | - |
| 1778241877 | 27.78° C | 26% | 985 hPa | - | - | - | - |
| 1778241277 | 26.11° C | 30% | 985 hPa | - | - | - | - |
| 1778240677 | 26.67° C | 29% | 985 hPa | - | - | - | - |
| 1778240077 | 21.11° C | 41% | 985 hPa | - | - | - | - |
| 1778239477 | 22.22° C | 39% | 985 hPa | - | - | - | - |
| 1778238877 | 19.44° C | 45% | 985 hPa | - | - | - | - |
| 1778238277 | 18.89° C | 42% | 985 hPa | - | - | - | - |
| 1778237677 | 18.89° C | 44% | 985 hPa | - | - | - | - |
| 1778237077 | 17.78° C | 49% | 985 hPa | - | - | - | - |
| 1778236477 | 17.22° C | 54% | 985 hPa | - | - | - | - |
| 1778235877 | 16.67° C | 55% | 985 hPa | - | - | - | - |
| 1778235277 | 16.67° C | 54% | 985 hPa | - | - | - | - |
| 1778234677 | 16.11° C | 57% | 985 hPa | - | - | - | - |
| 1778234077 | 16.11° C | 58% | 985 hPa | - | - | - | - |
| 1778233477 | 16.11° C | 58% | 986 hPa | - | - | - | - |
| 1778232877 | 15.56° C | 59% | 986 hPa | - | - | - | - |
| 1778232276 | 15.56° C | 62% | 986 hPa | - | - | - | - |
| 1778231677 | 15.56° C | 68% | 986 hPa | - | - | - | - |
| 1778231076 | 15° C | 72% | 986 hPa | - | - | - | - |
* Rain since midnight (hover to see other rain measurements)
** Current wind speed in m/s (hover to see current wind gust speed)